createdAt,value
2023-03-06T00:07:03.621Z,99176.09
2023-03-06T00:17:06.176Z,99176.47
2023-03-06T00:27:11.744Z,99160.84
2023-03-06T00:37:14.201Z,99160.38
2023-03-06T00:47:18.009Z,99140.38
2023-03-06T00:57:20.572Z,99120.72
2023-03-06T01:07:23.875Z,99119.06
2023-03-06T01:17:26.385Z,99105.28
2023-03-06T01:27:28.986Z,99102.78
2023-03-06T01:37:31.471Z,99097.44
2023-03-06T01:47:34.240Z,99076.47
2023-03-06T01:57:44.788Z,99074.03
2023-03-06T02:07:48.337Z,99062.38
2023-03-06T02:17:51.823Z,99057.66
2023-03-06T02:27:54.543Z,99038.41
2023-03-06T02:38:02.540Z,99034.81
2023-03-06T02:48:06.713Z,99042.97
2023-03-06T02:58:09.496Z,99039.78
2023-03-06T03:08:12.360Z,99034.44
2023-03-06T03:18:15.013Z,99036.22
2023-03-06T03:28:18.969Z,99029.66
2023-03-06T03:38:21.628Z,99024.50
2023-03-06T03:48:25.144Z,99010.75
2023-03-06T03:58:28.074Z,98992.88
2023-03-06T04:08:31.134Z,98982.75
2023-03-06T04:18:33.920Z,98979.34
2023-03-06T04:28:39.950Z,98977.81
2023-03-06T04:38:42.909Z,98962.44
2023-03-06T04:48:45.709Z,98957.22
2023-03-06T04:58:48.266Z,98950.44
2023-03-06T05:08:50.829Z,98934.84
2023-03-06T05:18:53.475Z,98932.31
2023-03-06T05:28:56.299Z,98925.41
2023-03-06T05:38:59.067Z,98928.03
2023-03-06T06:27:10.892Z,98936.72
2023-03-06T06:37:13.930Z,98922.75
2023-03-06T06:47:25.418Z,98925.72
2023-03-06T06:57:28.362Z,98926.25
2023-03-06T07:07:34.382Z,98906.78
2023-03-06T07:17:37.311Z,98916.66
2023-03-06T07:27:39.951Z,98921.59
2023-03-06T07:37:43.084Z,98920.53
2023-03-06T07:47:45.783Z,98922.66
2023-03-06T07:57:50.714Z,98923.31
2023-03-06T08:07:53.469Z,98910.69
2023-03-06T08:17:56.160Z,98905.81
2023-03-06T08:27:58.723Z,98902.00
2023-03-06T08:38:01.204Z,98887.88
2023-03-06T08:48:03.937Z,98900.19
2023-03-06T08:58:06.716Z,98877.84
2023-03-06T09:08:09.396Z,98870.41
2023-03-06T09:18:11.856Z,98853.06
2023-03-06T09:28:14.467Z,98835.81
2023-03-06T09:38:18.420Z,98854.34
2023-03-06T09:48:28.953Z,98844.25
2023-03-06T09:58:37.638Z,98835.75
2023-03-06T10:08:49.213Z,98824.34
2023-03-06T10:18:52.870Z,98817.72
2023-03-06T10:29:11.255Z,98796.16
2023-03-06T10:39:20.042Z,98789.09
2023-03-06T10:49:35.137Z,98766.03
2023-03-06T10:59:52.375Z,98760.31
2023-03-06T11:09:57.669Z,98745.72
2023-03-06T11:20:15.232Z,98731.06
2023-03-06T11:30:21.871Z,98724.31
2023-03-06T11:41:04.847Z,98706.72
2023-03-06T11:51:21.258Z,98699.16
2023-03-06T12:01:26.692Z,98687.53
2023-03-06T12:11:35.572Z,98669.41
2023-03-06T12:21:56.454Z,98647.19
2023-03-06T12:32:05.144Z,98646.41
2023-03-06T12:42:57.348Z,98638.84
2023-03-06T12:53:18.196Z,98637.69
2023-03-06T13:03:28.683Z,98640.28
2023-03-06T13:13:44.391Z,98631.25
2023-03-06T13:23:51.737Z,98640.88
2023-03-06T13:33:59.696Z,98640.75
2023-03-06T13:44:25.061Z,98631.34
2023-03-06T13:54:45.927Z,98626.09
2023-03-06T14:05:02.444Z,98626.31
2023-03-06T14:15:30.663Z,98631.88
2023-03-06T14:25:35.149Z,98641.53
2023-03-06T14:35:38.999Z,98599.28
2023-03-06T14:45:52.910Z,98622.06
2023-03-06T14:56:06.713Z,98628.53
2023-03-06T15:06:15.473Z,98613.63
2023-03-06T15:16:20.983Z,98613.63
2023-03-06T15:26:39.788Z,98616.09
2023-03-06T15:36:46.655Z,98610.97
2023-03-06T15:46:51.827Z,98606.72
2023-03-06T15:56:56.321Z,98617.44
2023-03-06T16:06:59.729Z,98627.59
2023-03-06T16:17:02.599Z,98635.00
2023-03-06T16:27:06.985Z,98634.97
2023-03-06T16:37:13.287Z,98633.47
2023-03-06T16:47:16.954Z,98635.78
2023-03-06T16:57:19.599Z,98643.84
2023-03-06T17:07:22.306Z,98643.00
2023-03-06T17:17:25.212Z,98640.00
2023-03-06T17:27:27.822Z,98647.66
2023-03-06T17:37:32.030Z,98635.63
2023-03-06T17:47:35.336Z,98644.78
2023-03-06T17:57:38.098Z,98626.03
2023-03-06T18:07:40.726Z,98651.75
2023-03-06T18:17:43.476Z,98653.06
2023-03-06T18:27:46.854Z,98689.94
2023-03-06T18:37:50.014Z,98700.00
2023-03-06T18:47:52.825Z,98694.88
2023-03-06T18:57:55.552Z,98673.63
2023-03-06T19:07:58.438Z,98687.91
2023-03-06T19:18:01.333Z,98685.06
2023-03-06T19:28:04.147Z,98694.41
2023-03-06T19:38:06.614Z,98705.25
2023-03-06T19:48:11.353Z,98694.91
2023-03-06T19:58:14.437Z,98706.03
2023-03-06T20:08:17.426Z,98706.81
2023-03-06T20:18:20.171Z,98738.00
2023-03-06T20:28:23.500Z,98738.72
2023-03-06T20:38:26.300Z,98763.28
2023-03-06T20:48:30.048Z,98756.56
2023-03-06T20:58:32.971Z,98745.28
2023-03-06T21:08:35.766Z,98735.63
2023-03-06T21:18:39.953Z,98734.16
2023-03-06T21:28:42.949Z,98725.97
2023-03-06T21:38:48.577Z,98741.63
2023-03-06T21:48:51.595Z,98748.63
2023-03-06T21:58:55.293Z,98743.34
2023-03-06T22:08:59.352Z,98753.91
2023-03-06T22:19:01.886Z,98725.75
2023-03-06T22:29:04.498Z,98722.56
2023-03-06T22:39:06.916Z,98749.97
2023-03-06T22:49:12.161Z,98746.25
2023-03-06T22:59:14.620Z,98755.97
2023-03-06T23:09:22.179Z,98746.09
2023-03-06T23:19:43.202Z,98737.47
2023-03-06T23:30:05.544Z,98756.81
2023-03-06T23:40:09.422Z,98743.41
2023-03-06T23:50:12.193Z,98747.59
